createdAt,value
2022-07-29T00:00:21.525Z,51.68
2022-07-29T00:00:53.782Z,51.22
2022-07-29T00:01:25.995Z,50.51
2022-07-29T00:02:00.739Z,49.33
2022-07-29T00:02:33.229Z,48.75
2022-07-29T00:03:05.559Z,48.99
2022-07-29T00:03:40.496Z,48.72
2022-07-29T00:04:15.652Z,48.96
2022-07-29T00:04:50.698Z,48.74
2022-07-29T00:05:23.131Z,48.36
2022-07-29T00:05:55.341Z,48.79
2022-07-29T00:06:30.207Z,48.65
2022-07-29T00:07:02.343Z,48.59
2022-07-29T00:07:34.581Z,49.15
2022-07-29T00:08:12.507Z,48.87
2022-07-29T00:08:44.957Z,49.01
2022-07-29T00:09:17.147Z,48.97
2022-07-29T00:09:52.625Z,49.19
2022-07-29T00:10:24.936Z,50.07
2022-07-29T00:10:57.192Z,50.59
2022-07-29T00:11:32.105Z,50.75
2022-07-29T00:12:05.037Z,50.40
2022-07-29T00:12:39.893Z,50.90
2022-07-29T00:13:13.214Z,50.55
2022-07-29T00:13:50.556Z,49.88
2022-07-29T00:14:25.715Z,49.44
2022-07-29T00:14:58.211Z,49.37
2022-07-29T00:15:30.640Z,48.99
2022-07-29T00:16:05.522Z,48.39
2022-07-29T00:16:37.764Z,48.56
2022-07-29T00:17:12.518Z,48.65
2022-07-29T00:17:51.286Z,48.94
2022-07-29T00:18:23.568Z,49.83
2022-07-29T00:19:01.912Z,50.63
2022-07-29T00:19:37.077Z,51.27
2022-07-29T00:20:10.854Z,51.75
2022-07-29T00:20:45.660Z,52.00
2022-07-29T00:21:17.782Z,52.28
2022-07-29T00:21:50.079Z,52.33
2022-07-29T00:22:25.039Z,52.04
2022-07-29T00:22:57.226Z,52.54
2022-07-29T00:23:30.692Z,52.22
2022-07-29T00:24:06.684Z,52.76
2022-07-29T00:24:38.861Z,52.94
2022-07-29T00:25:11.503Z,53.47
2022-07-29T00:25:46.361Z,52.75
2022-07-29T00:26:18.497Z,52.77
2022-07-29T00:26:50.681Z,52.93
2022-07-29T00:27:25.719Z,52.96
2022-07-29T00:27:57.911Z,52.22
2022-07-29T00:28:30.335Z,52.04
2022-07-29T00:29:32.957Z,52.61
2022-07-29T00:29:59.241Z,53.24
2022-07-29T00:30:33.957Z,52.81
2022-07-29T00:31:06.700Z,53.08
2022-07-29T00:31:38.965Z,53.50
2022-07-29T00:32:13.933Z,53.64
2022-07-29T00:32:46.065Z,53.49
2022-07-29T00:33:18.243Z,53.59
2022-07-29T00:33:53.185Z,53.74
2022-07-29T00:34:40.379Z,53.27
2022-07-29T00:35:30.225Z,53.51
2022-07-29T00:36:02.390Z,53.67
2022-07-29T00:36:34.533Z,53.36
2022-07-29T00:37:07.951Z,52.52
2022-07-29T00:37:42.852Z,51.75
2022-07-29T00:38:18.270Z,51.64
2022-07-29T00:38:53.762Z,52.39
2022-07-29T00:39:25.989Z,52.65
2022-07-29T00:39:59.758Z,53.25
2022-07-29T00:40:32.045Z,53.33
2022-07-29T00:41:06.904Z,53.67
2022-07-29T00:41:39.010Z,53.51
2022-07-29T00:42:11.244Z,53.62
2022-07-29T00:42:46.979Z,53.09
2022-07-29T00:43:19.366Z,53.39
2022-07-29T00:43:51.528Z,52.81
2022-07-29T00:44:26.827Z,53.15
2022-07-29T00:44:58.959Z,52.01
2022-07-29T00:45:31.620Z,51.14
2022-07-29T00:46:06.354Z,51.76
2022-07-29T00:46:38.572Z,52.26
2022-07-29T00:47:12.081Z,51.34
2022-07-29T00:47:47.396Z,50.70
2022-07-29T00:48:19.614Z,50.19
2022-07-29T00:48:51.869Z,50.62
2022-07-29T00:49:26.847Z,50.83
2022-07-29T00:49:59.148Z,51.54
2022-07-29T00:50:36.844Z,51.57
2022-07-29T00:51:09.361Z,51.38
2022-07-29T00:51:42.139Z,51.48
2022-07-29T00:52:17.364Z,50.71
2022-07-29T00:52:49.764Z,50.37
2022-07-29T00:53:25.240Z,50.30
2022-07-29T00:53:58.805Z,49.98
2022-07-29T00:54:31.467Z,50.40
2022-07-29T00:55:08.662Z,50.47
2022-07-29T00:55:43.797Z,49.97
2022-07-29T00:56:16.011Z,50.16
2022-07-29T00:56:48.289Z,49.62
2022-07-29T00:57:24.025Z,50.01
2022-07-29T00:57:56.396Z,49.40
2022-07-29T00:58:31.314Z,49.14
2022-07-29T00:59:03.547Z,48.59
2022-07-29T00:59:35.842Z,48.87
2022-07-29T01:00:13.658Z,48.58
2022-07-29T01:00:46.249Z,49.02
2022-07-29T01:01:21.255Z,48.67
2022-07-29T01:01:53.539Z,48.35
2022-07-29T01:02:25.849Z,47.64
2022-07-29T01:03:00.658Z,47.50
2022-07-29T01:03:34.108Z,47.44
2022-07-29T01:04:07.767Z,47.41
2022-07-29T01:04:43.184Z,46.97
2022-07-29T01:05:18.196Z,46.52
2022-07-29T01:05:56.646Z,46.20
2022-07-29T01:06:28.847Z,46.46
2022-07-29T01:07:03.086Z,46.02
2022-07-29T01:07:39.035Z,46.17
2022-07-29T01:08:14.390Z,46.37
2022-07-29T01:08:48.335Z,45.97
2022-07-29T01:09:35.052Z,46.27
2022-07-29T01:10:17.356Z,46.26
2022-07-29T01:10:54.809Z,46.43
2022-07-29T01:11:27.327Z,46.42
2022-07-29T01:12:01.330Z,46.71
2022-07-29T01:12:37.941Z,47.17
2022-07-29T01:13:12.150Z,46.99
2022-07-29T01:13:47.536Z,46.68
2022-07-29T01:14:20.301Z,46.69
2022-07-29T01:14:54.554Z,47.15
2022-07-29T01:15:29.792Z,46.52
2022-07-29T01:16:11.728Z,46.79
2022-07-29T01:16:52.728Z,47.27
2022-07-29T01:17:30.550Z,46.47
2022-07-29T01:18:08.434Z,47.03
2022-07-29T01:18:48.332Z,47.33
2022-07-29T01:19:45.051Z,47.40
2022-07-29T01:20:25.529Z,47.82
2022-07-29T01:21:26.866Z,48.29
2022-07-29T01:22:03.415Z,48.23
2022-07-29T01:22:56.178Z,48.31
2022-07-29T01:24:09.423Z,48.23
2022-07-29T01:24:56.087Z,48.55
2022-07-29T01:25:45.895Z,47.78
2022-07-29T01:26:38.824Z,47.12
2022-07-29T01:27:29.601Z,47.13
2022-07-29T01:28:28.619Z,47.57
2022-07-29T01:29:08.415Z,47.43
2022-07-29T01:29:45.260Z,46.79
2022-07-29T01:30:24.404Z,46.89
2022-07-29T01:30:57.922Z,46.53
2022-07-29T01:31:38.547Z,46.28
2022-07-29T01:32:32.023Z,46.53
2022-07-29T01:33:09.036Z,46.81
2022-07-29T01:33:52.329Z,47.36
2022-07-29T01:34:31.619Z,47.46
2022-07-29T01:35:07.575Z,47.47
2022-07-29T01:35:42.559Z,47.49
2022-07-29T01:36:25.752Z,47.12
2022-07-29T01:37:06.364Z,46.88
2022-07-29T01:37:47.182Z,47.21
2022-07-29T01:38:29.309Z,47.06
2022-07-29T01:39:08.720Z,47.66
2022-07-29T01:39:46.020Z,47.82
2022-07-29T01:40:23.376Z,47.42
2022-07-29T01:41:03.911Z,47.79
2022-07-29T01:41:41.325Z,48.05
2022-07-29T01:42:22.014Z,48.62
2022-07-29T01:43:00.674Z,48.50
2022-07-29T01:43:37.843Z,48.64
2022-07-29T01:44:19.864Z,48.42
2022-07-29T01:45:01.317Z,48.93
2022-07-29T01:45:40.390Z,48.79
2022-07-29T01:46:18.845Z,48.74
2022-07-29T01:46:59.537Z,48.87
2022-07-29T01:47:38.483Z,49.03
2022-07-29T01:48:18.933Z,49.16
2022-07-29T01:48:58.696Z,49.30
2022-07-29T01:49:35.836Z,49.32
2022-07-29T01:50:16.405Z,49.11
2022-07-29T01:50:53.247Z,49.24
2022-07-29T01:51:31.756Z,49.31
2022-07-29T01:52:11.686Z,48.74
2022-07-29T01:52:48.434Z,48.57
2022-07-29T01:53:28.023Z,48.48
2022-07-29T01:54:18.488Z,48.19
2022-07-29T01:54:55.929Z,48.63
2022-07-29T01:55:34.620Z,48.38
2022-07-29T01:56:10.219Z,48.23
2022-07-29T01:56:44.967Z,48.30
2022-07-29T01:57:23.185Z,48.00
2022-07-29T01:57:57.663Z,48.08
2022-07-29T01:58:32.526Z,47.94
2022-07-29T01:59:10.589Z,48.00
2022-07-29T01:59:47.726Z,48.15
2022-07-29T02:00:20.160Z,47.64
2022-07-29T02:00:56.392Z,47.38
2022-07-29T02:01:30.940Z,47.34
2022-07-29T02:02:04.108Z,47.04
2022-07-29T02:02:41.803Z,47.22
2022-07-29T02:03:14.982Z,47.34
2022-07-29T02:03:48.030Z,47.56
2022-07-29T02:04:29.634Z,47.59
2022-07-29T02:05:05.761Z,47.34
2022-07-29T02:05:40.836Z,47.83
2022-07-29T02:06:20.012Z,48.15
2022-07-29T02:06:55.658Z,48.65
2022-07-29T02:07:30.602Z,48.19
2022-07-29T02:08:06.218Z,47.99
2022-07-29T02:08:40.430Z,48.47
2022-07-29T02:09:15.364Z,48.78
2022-07-29T02:09:53.200Z,48.66
2022-07-29T02:10:30.983Z,48.74
2022-07-29T02:11:05.496Z,49.03
2022-07-29T02:11:41.951Z,49.08
2022-07-29T02:12:15.988Z,49.18
2022-07-29T02:12:50.725Z,49.59
2022-07-29T02:13:28.870Z,49.55
2022-07-29T02:14:02.188Z,49.32
2022-07-29T02:14:37.397Z,48.80
2022-07-29T02:15:16.366Z,48.86
2022-07-29T02:15:53.267Z,49.25
2022-07-29T02:16:30.122Z,48.61
2022-07-29T02:17:06.110Z,48.51
2022-07-29T02:17:43.092Z,48.49
2022-07-29T02:18:21.579Z,48.88
2022-07-29T02:18:55.479Z,48.41
2022-07-29T02:19:30.230Z,48.36
2022-07-29T02:20:07.686Z,48.05
2022-07-29T02:20:43.831Z,47.67
2022-07-29T02:21:20.781Z,47.59
2022-07-29T02:21:57.548Z,47.49
2022-07-29T02:22:32.564Z,47.97
2022-07-29T02:23:05.419Z,48.04
2022-07-29T02:23:50.966Z,47.80
2022-07-29T02:24:25.703Z,48.13
2022-07-29T02:25:02.088Z,48.41
2022-07-29T02:25:37.422Z,48.00
2022-07-29T02:26:10.909Z,48.37
2022-07-29T02:26:48.162Z,47.83
2022-07-29T02:27:23.674Z,47.98
2022-07-29T02:27:57.487Z,47.99
2022-07-29T02:28:34.826Z,47.87
2022-07-29T02:29:07.996Z,48.10
2022-07-29T02:29:44.023Z,48.21
2022-07-29T02:30:19.480Z,48.22
2022-07-29T02:30:53.953Z,48.46
2022-07-29T02:31:35.173Z,48.32
2022-07-29T02:32:11.556Z,48.22
2022-07-29T02:32:46.998Z,47.81
2022-07-29T02:33:23.739Z,47.82
2022-07-29T02:33:57.229Z,47.75
2022-07-29T02:34:30.678Z,48.16
2022-07-29T02:35:06.695Z,48.20
2022-07-29T02:35:41.534Z,48.50
2022-07-29T02:36:14.229Z,48.10
2022-07-29T02:36:49.677Z,48.07
2022-07-29T02:37:23.114Z,48.22
2022-07-29T02:38:11.555Z,48.53
2022-07-29T02:38:51.418Z,48.21
2022-07-29T02:39:28.263Z,48.32
2022-07-29T02:40:00.849Z,48.66
2022-07-29T02:40:34.805Z,48.68
2022-07-29T02:41:14.105Z,48.58
2022-07-29T02:41:49.935Z,48.53
2022-07-29T02:42:26.965Z,48.52
2022-07-29T02:43:00.591Z,48.46
2022-07-29T02:43:34.272Z,48.81
2022-07-29T02:44:13.707Z,48.70
2022-07-29T02:44:46.419Z,49.02
2022-07-29T02:45:21.366Z,49.05
2022-07-29T02:45:58.858Z,49.37
2022-07-29T02:46:34.170Z,49.08
2022-07-29T02:47:14.803Z,49.23
2022-07-29T02:47:53.434Z,49.48
2022-07-29T02:48:33.113Z,49.31
2022-07-29T02:49:20.202Z,49.12
2022-07-29T02:49:56.439Z,49.28
2022-07-29T02:50:34.077Z,49.60
2022-07-29T02:51:43.507Z,49.75
2022-07-29T02:52:15.407Z,49.37
2022-07-29T02:52:58.195Z,49.58
2022-07-29T02:53:34.542Z,49.57
2022-07-29T02:54:09.676Z,49.61
2022-07-29T02:54:49.868Z,50.00
2022-07-29T02:55:27.537Z,49.57
2022-07-29T02:56:03.002Z,49.83
2022-07-29T02:56:38.795Z,49.92
2022-07-29T02:57:20.395Z,49.96
2022-07-29T02:58:01.753Z,49.83
2022-07-29T02:58:38.365Z,49.52
2022-07-29T02:59:12.615Z,50.13
2022-07-29T02:59:49.272Z,50.10
2022-07-29T03:00:26.261Z,49.96
2022-07-29T03:01:02.452Z,49.94
2022-07-29T03:01:38.843Z,49.75
2022-07-29T03:02:12.839Z,49.96
2022-07-29T03:02:50.072Z,50.06
2022-07-29T03:03:25.666Z,50.10
2022-07-29T03:04:02.054Z,50.22
2022-07-29T03:04:35.773Z,49.75
2022-07-29T03:05:14.697Z,49.68
2022-07-29T03:05:47.046Z,49.71
2022-07-29T03:06:37.639Z,50.18
2022-07-29T03:07:16.877Z,50.09
2022-07-29T03:07:53.598Z,50.01
2022-07-29T03:08:27.724Z,50.00
2022-07-29T03:09:06.600Z,50.04
2022-07-29T03:09:43.643Z,50.10
2022-07-29T03:10:16.099Z,50.34
2022-07-29T03:10:52.001Z,49.84
2022-07-29T03:11:46.251Z,50.12
2022-07-29T03:12:20.242Z,50.20
2022-07-29T03:12:52.985Z,50.42
2022-07-29T03:13:26.007Z,50.03
2022-07-29T03:14:01.152Z,50.25
2022-07-29T03:14:33.622Z,50.19
2022-07-29T03:15:08.107Z,50.24
2022-07-29T03:15:46.836Z,49.96
2022-07-29T03:16:20.701Z,49.68
2022-07-29T03:16:53.617Z,49.97
2022-07-29T03:17:29.490Z,49.81
2022-07-29T03:18:02.136Z,49.84
2022-07-29T03:18:35.004Z,49.33
2022-07-29T03:19:10.125Z,49.09
2022-07-29T03:19:43.131Z,49.37
2022-07-29T03:20:19.358Z,49.25
2022-07-29T03:20:51.737Z,49.35
2022-07-29T03:21:23.958Z,49.30
2022-07-29T03:22:00.921Z,49.71
2022-07-29T03:22:33.478Z,49.94
2022-07-29T03:23:05.700Z,49.83
2022-07-29T03:23:37.877Z,50.07
2022-07-29T03:24:12.939Z,50.26
2022-07-29T03:24:45.275Z,50.62
2022-07-29T03:25:24.039Z,50.70
2022-07-29T03:25:56.969Z,50.35
2022-07-29T03:26:29.491Z,50.68
2022-07-29T03:27:05.122Z,50.66
2022-07-29T03:27:37.405Z,50.77
2022-07-29T03:28:09.842Z,51.14
2022-07-29T03:28:44.627Z,51.09
2022-07-29T03:29:17.051Z,51.32
2022-07-29T03:29:52.121Z,51.32
2022-07-29T03:30:28.287Z,51.06
2022-07-29T03:31:03.638Z,51.03
2022-07-29T03:31:37.988Z,51.12
2022-07-29T03:32:13.249Z,51.57
2022-07-29T03:32:46.197Z,51.42
2022-07-29T03:33:18.395Z,51.45
2022-07-29T03:33:53.357Z,51.11
2022-07-29T03:34:25.626Z,51.07
2022-07-29T03:34:57.857Z,50.71
2022-07-29T03:35:33.299Z,50.65
2022-07-29T03:36:05.592Z,51.11
2022-07-29T03:36:40.319Z,50.81
2022-07-29T03:37:14.711Z,50.64
2022-07-29T03:37:47.051Z,50.48
2022-07-29T03:38:22.549Z,50.43
2022-07-29T03:38:55.725Z,50.55
2022-07-29T03:39:32.896Z,50.53
2022-07-29T03:40:12.456Z,50.96
2022-07-29T03:40:49.891Z,51.03
2022-07-29T03:41:25.830Z,50.82
2022-07-29T03:42:03.313Z,50.51
2022-07-29T03:42:39.201Z,49.77
2022-07-29T03:43:14.529Z,50.50
2022-07-29T03:43:51.395Z,50.23
2022-07-29T03:44:25.225Z,50.75
2022-07-29T03:45:00.514Z,50.59
2022-07-29T03:45:35.243Z,50.87
2022-07-29T03:46:15.261Z,51.14
2022-07-29T03:46:49.871Z,50.79
2022-07-29T03:47:43.520Z,50.51
2022-07-29T03:48:25.653Z,50.63
2022-07-29T03:49:01.668Z,50.39
2022-07-29T03:49:36.813Z,49.93
2022-07-29T03:50:14.432Z,48.87
2022-07-29T03:50:46.909Z,48.35
2022-07-29T03:51:19.247Z,48.39
2022-07-29T03:52:08.943Z,47.85
2022-07-29T03:52:41.886Z,47.79
2022-07-29T03:53:18.235Z,47.94
2022-07-29T03:53:50.575Z,47.85
2022-07-29T03:54:26.132Z,47.39
2022-07-29T03:54:58.811Z,47.48
2022-07-29T03:55:37.525Z,47.54
2022-07-29T03:56:13.986Z,47.18
2022-07-29T03:56:49.735Z,46.75
2022-07-29T03:57:26.114Z,47.52
2022-07-29T03:58:02.798Z,47.59
2022-07-29T03:58:35.826Z,48.26
2022-07-29T03:59:09.482Z,47.28
2022-07-29T03:59:45.028Z,47.30
2022-07-29T04:00:17.759Z,48.29
2022-07-29T04:00:50.389Z,48.30
2022-07-29T04:01:28.559Z,48.31
2022-07-29T04:02:02.494Z,48.35
2022-07-29T04:02:37.614Z,48.90
2022-07-29T04:03:11.696Z,48.87
2022-07-29T04:03:46.412Z,48.33
2022-07-29T04:04:21.379Z,47.46
2022-07-29T04:04:53.881Z,47.89
2022-07-29T04:05:26.070Z,48.05
2022-07-29T04:06:06.761Z,47.82
2022-07-29T04:06:40.103Z,47.73
2022-07-29T04:07:13.850Z,47.41
2022-07-29T04:07:49.154Z,47.24
2022-07-29T04:08:21.334Z,47.60
2022-07-29T04:08:53.749Z,47.57
2022-07-29T04:09:28.490Z,48.16
2022-07-29T04:10:00.732Z,47.82
2022-07-29T04:10:33.984Z,47.87
2022-07-29T04:11:09.762Z,48.55
2022-07-29T04:11:57.046Z,48.75
2022-07-29T04:12:35.492Z,48.49
2022-07-29T04:13:10.270Z,48.67
2022-07-29T04:13:42.449Z,48.33
2022-07-29T04:14:14.760Z,48.78
2022-07-29T04:14:49.883Z,48.25
2022-07-29T04:15:22.393Z,48.57
2022-07-29T04:15:54.769Z,48.54
2022-07-29T04:16:32.294Z,48.00
2022-07-29T04:17:05.610Z,48.10
2022-07-29T04:17:38.158Z,47.98
2022-07-29T04:18:12.958Z,48.08
2022-07-29T04:18:45.199Z,47.89
2022-07-29T04:19:17.362Z,47.56
2022-07-29T04:19:52.155Z,47.45
2022-07-29T04:20:24.303Z,47.30
2022-07-29T04:20:56.444Z,47.54
2022-07-29T04:21:31.369Z,47.62
2022-07-29T04:22:03.710Z,48.02
2022-07-29T04:22:35.938Z,48.32
2022-07-29T04:23:10.765Z,48.19
2022-07-29T04:23:53.063Z,47.49
2022-07-29T04:24:28.803Z,47.41
2022-07-29T04:25:04.026Z,47.22
2022-07-29T04:25:38.965Z,47.09
2022-07-29T04:26:13.755Z,47.00
2022-07-29T04:26:47.256Z,47.20
2022-07-29T04:27:19.420Z,47.36
2022-07-29T04:28:04.904Z,46.99
2022-07-29T04:28:37.179Z,47.41
2022-07-29T04:29:09.548Z,47.04
2022-07-29T04:29:56.106Z,46.87
2022-07-29T04:30:30.660Z,47.01
2022-07-29T04:31:05.636Z,47.09
2022-07-29T04:31:40.449Z,47.10
2022-07-29T04:32:12.763Z,47.35
2022-07-29T04:32:47.848Z,47.05
2022-07-29T04:33:20.034Z,47.23
2022-07-29T04:33:52.320Z,47.29
2022-07-29T04:34:28.058Z,47.43
2022-07-29T04:35:00.530Z,47.48
2022-07-29T04:35:38.373Z,47.23
2022-07-29T04:36:29.041Z,47.03
2022-07-29T04:37:01.866Z,47.09
2022-07-29T04:37:34.253Z,46.89
2022-07-29T04:38:15.594Z,46.75
2022-07-29T04:38:49.111Z,46.73
2022-07-29T04:39:23.153Z,46.87
2022-07-29T04:39:58.309Z,46.65
2022-07-29T04:40:30.723Z,46.85
2022-07-29T04:41:02.932Z,46.80
2022-07-29T04:41:38.447Z,46.77
2022-07-29T04:42:10.762Z,46.63
2022-07-29T04:42:46.301Z,46.76
2022-07-29T04:43:22.729Z,47.10
2022-07-29T04:43:55.895Z,47.00
2022-07-29T04:44:32.326Z,46.71
2022-07-29T04:45:11.488Z,46.43
2022-07-29T04:45:43.630Z,46.31
2022-07-29T04:46:19.089Z,46.14
2022-07-29T04:46:53.931Z,46.21
2022-07-29T04:47:26.099Z,46.47
2022-07-29T04:48:00.831Z,46.47
2022-07-29T04:48:33.099Z,46.32
2022-07-29T04:49:05.644Z,46.18
2022-07-29T04:49:42.181Z,45.78
2022-07-29T04:50:14.370Z,46.01
2022-07-29T04:50:47.090Z,46.07
2022-07-29T04:51:21.854Z,46.01
2022-07-29T04:51:54.022Z,45.66
2022-07-29T04:52:26.210Z,45.66
2022-07-29T04:53:01.066Z,45.94
2022-07-29T04:53:33.272Z,45.52
2022-07-29T04:54:08.679Z,45.91
2022-07-29T04:54:41.035Z,45.83
2022-07-29T04:55:13.294Z,45.77
2022-07-29T04:55:48.328Z,45.38
2022-07-29T04:56:20.546Z,45.51
2022-07-29T04:56:52.705Z,45.28
2022-07-29T04:57:27.452Z,45.52
2022-07-29T04:57:59.739Z,44.94
2022-07-29T04:58:35.732Z,45.36
2022-07-29T04:59:10.545Z,45.38
2022-07-29T04:59:45.344Z,45.26
2022-07-29T05:00:17.859Z,44.80
2022-07-29T05:00:52.667Z,45.05
2022-07-29T05:01:24.924Z,44.67
2022-07-29T05:01:59.797Z,44.99
2022-07-29T05:02:35.756Z,44.94
2022-07-29T05:03:08.084Z,44.97
2022-07-29T05:03:40.511Z,44.58
2022-07-29T05:04:15.551Z,44.53
2022-07-29T05:04:47.983Z,44.21
2022-07-29T05:05:20.386Z,44.30
2022-07-29T05:05:55.254Z,44.35
2022-07-29T05:06:27.644Z,44.57
2022-07-29T05:06:59.870Z,44.61
2022-07-29T05:07:34.723Z,44.59
2022-07-29T05:08:06.943Z,44.72
2022-07-29T05:08:41.919Z,44.82
2022-07-29T05:09:14.243Z,44.63
2022-07-29T05:09:46.358Z,44.56
2022-07-29T05:10:21.256Z,44.66
2022-07-29T05:10:53.474Z,44.53
2022-07-29T05:11:30.090Z,43.89
2022-07-29T05:12:05.265Z,44.26
2022-07-29T05:12:37.508Z,44.04
2022-07-29T05:13:12.187Z,43.83
2022-07-29T05:13:46.053Z,43.67
2022-07-29T05:14:19.598Z,43.77
2022-07-29T05:14:54.831Z,43.95
2022-07-29T05:15:27.197Z,44.10
2022-07-29T05:15:59.611Z,43.81
2022-07-29T05:16:34.575Z,43.42
2022-07-29T05:17:09.597Z,44.23
2022-07-29T05:17:41.778Z,44.32
2022-07-29T05:18:16.640Z,44.06
2022-07-29T05:18:48.879Z,44.61
2022-07-29T05:19:20.989Z,44.81
2022-07-29T05:19:55.734Z,44.76
2022-07-29T05:20:29.401Z,44.84
2022-07-29T05:21:01.627Z,45.12
2022-07-29T05:21:36.379Z,44.63
2022-07-29T05:22:08.579Z,44.64
2022-07-29T05:22:40.875Z,44.58
2022-07-29T05:23:16.694Z,44.20
2022-07-29T05:23:48.897Z,44.15
2022-07-29T05:24:21.113Z,44.36
2022-07-29T05:24:55.898Z,44.07
2022-07-29T05:25:43.503Z,44.23
2022-07-29T05:26:19.257Z,44.56
2022-07-29T05:26:51.371Z,44.62
2022-07-29T05:27:24.042Z,44.58
2022-07-29T05:27:59.835Z,44.49
2022-07-29T05:28:34.713Z,44.38
2022-07-29T05:29:07.222Z,44.65
2022-07-29T05:30:01.973Z,44.87
2022-07-29T05:30:34.151Z,45.22
2022-07-29T05:31:06.402Z,45.39
2022-07-29T05:31:41.325Z,45.47
2022-07-29T05:32:16.261Z,45.69
2022-07-29T05:32:48.512Z,46.27
2022-07-29T05:33:34.646Z,45.92
2022-07-29T05:34:08.924Z,46.42
2022-07-29T05:34:51.038Z,46.43
2022-07-29T05:35:26.508Z,46.83
2022-07-29T05:36:00.848Z,47.04
2022-07-29T05:36:35.930Z,46.74
2022-07-29T05:37:08.102Z,47.40
2022-07-29T05:37:43.480Z,47.15
2022-07-29T05:38:15.775Z,47.36
2022-07-29T05:38:47.997Z,47.69
2022-07-29T05:39:22.863Z,47.01
2022-07-29T05:40:15.179Z,47.45
2022-07-29T05:40:50.091Z,47.43
2022-07-29T05:41:22.320Z,46.80
2022-07-29T05:41:54.565Z,46.91
2022-07-29T05:42:30.259Z,46.89
2022-07-29T05:43:02.460Z,46.75
2022-07-29T05:43:34.595Z,47.18
2022-07-29T05:44:09.617Z,46.94
2022-07-29T05:44:41.916Z,47.02
2022-07-29T05:45:14.210Z,46.97
2022-07-29T05:45:49.971Z,47.05
2022-07-29T05:46:22.670Z,46.97
2022-07-29T05:46:54.952Z,47.03
2022-07-29T05:47:32.588Z,46.47
2022-07-29T05:48:05.356Z,46.54
2022-07-29T05:48:38.020Z,46.75
2022-07-29T05:49:13.254Z,46.29
2022-07-29T05:49:59.318Z,46.66
2022-07-29T05:50:34.159Z,46.68
2022-07-29T05:51:06.392Z,46.59
2022-07-29T05:51:38.606Z,46.68
2022-07-29T05:52:14.203Z,46.78
2022-07-29T05:52:46.482Z,46.58
2022-07-29T05:53:20.545Z,46.16
2022-07-29T05:53:55.743Z,45.89
2022-07-29T05:54:28.207Z,46.01
2022-07-29T05:55:03.869Z,45.53
2022-07-29T05:55:38.809Z,45.97
2022-07-29T05:56:11.942Z,45.33
2022-07-29T05:56:44.099Z,45.21
2022-07-29T05:57:22.882Z,45.20
2022-07-29T05:57:55.060Z,45.10
2022-07-29T05:58:27.173Z,45.26
2022-07-29T05:59:02.369Z,44.84
2022-07-29T05:59:37.300Z,45.01
2022-07-29T06:00:13.697Z,44.91
2022-07-29T06:00:46.461Z,45.21
2022-07-29T06:01:18.813Z,45.18
2022-07-29T06:01:53.658Z,45.29
2022-07-29T06:02:25.876Z,44.97
2022-07-29T06:03:03.194Z,44.64
2022-07-29T06:03:36.113Z,44.14
2022-07-29T06:04:08.351Z,44.29
2022-07-29T06:04:43.251Z,44.33
2022-07-29T06:05:17.352Z,43.78
2022-07-29T06:05:52.113Z,43.91
2022-07-29T06:06:24.408Z,43.38
2022-07-29T06:06:56.680Z,42.74
2022-07-29T06:07:31.860Z,42.49
2022-07-29T06:08:08.473Z,42.69
2022-07-29T06:08:41.349Z,42.97
2022-07-29T06:09:16.242Z,43.21
2022-07-29T06:09:48.444Z,42.93
2022-07-29T06:10:20.697Z,42.72
2022-07-29T06:10:58.744Z,42.40
2022-07-29T06:11:31.167Z,41.92
2022-07-29T06:12:04.280Z,41.80
2022-07-29T06:12:39.032Z,41.88
2022-07-29T06:13:11.345Z,41.80
2022-07-29T06:13:43.557Z,41.58
2022-07-29T06:14:18.797Z,41.37
2022-07-29T06:14:54.181Z,41.32
2022-07-29T06:15:26.599Z,41.78
2022-07-29T06:16:01.372Z,41.50
2022-07-29T06:16:33.711Z,41.32
2022-07-29T06:17:06.553Z,41.55
2022-07-29T06:17:59.987Z,40.90
2022-07-29T06:18:36.210Z,41.39
2022-07-29T06:19:10.990Z,41.02
2022-07-29T06:19:43.150Z,41.13
2022-07-29T06:20:15.405Z,40.84
2022-07-29T06:20:50.208Z,41.26
2022-07-29T06:21:22.339Z,41.43
2022-07-29T06:21:54.664Z,41.34
2022-07-29T06:22:29.890Z,41.51
2022-07-29T06:23:05.441Z,41.20
2022-07-29T06:23:38.113Z,41.04
2022-07-29T06:24:14.304Z,40.79
2022-07-29T06:24:46.715Z,40.90
2022-07-29T06:25:19.493Z,40.72
2022-07-29T06:25:54.242Z,40.88
2022-07-29T06:26:31.334Z,40.56
2022-07-29T06:27:06.554Z,40.52
2022-07-29T06:27:38.815Z,40.55
2022-07-29T06:28:11.844Z,41.04
2022-07-29T06:28:46.627Z,41.00
2022-07-29T06:29:18.799Z,41.24
2022-07-29T06:29:53.592Z,41.13
2022-07-29T06:30:25.927Z,40.53
2022-07-29T06:31:00.816Z,40.90
2022-07-29T06:31:33.047Z,40.83
2022-07-29T06:32:10.283Z,40.85
2022-07-29T06:32:43.321Z,41.17
2022-07-29T06:33:19.778Z,40.56
2022-07-29T06:33:57.213Z,40.58
2022-07-29T06:34:29.500Z,40.72
2022-07-29T06:35:32.931Z,40.78
2022-07-29T06:35:58.498Z,40.67
2022-07-29T06:36:33.382Z,40.94
2022-07-29T06:37:07.705Z,40.57
2022-07-29T06:37:47.728Z,40.87
2022-07-29T06:38:34.058Z,40.86
2022-07-29T06:39:09.103Z,40.39
2022-07-29T06:39:41.356Z,40.37
2022-07-29T06:40:29.025Z,40.03
2022-07-29T06:41:01.828Z,40.06
2022-07-29T06:41:36.993Z,40.26
2022-07-29T06:42:15.330Z,39.64
2022-07-29T06:42:47.481Z,39.88
2022-07-29T06:43:22.264Z,39.34
2022-07-29T06:43:56.812Z,39.47
2022-07-29T06:44:32.174Z,39.61
2022-07-29T06:45:09.329Z,39.71
2022-07-29T06:45:42.697Z,39.84
2022-07-29T06:46:19.781Z,39.23
2022-07-29T06:46:52.774Z,39.44
2022-07-29T06:47:27.567Z,39.00
2022-07-29T06:47:59.782Z,39.03
2022-07-29T06:48:32.605Z,39.16
2022-07-29T06:49:09.941Z,38.63
2022-07-29T06:49:42.199Z,39.04
2022-07-29T06:50:15.136Z,39.22
2022-07-29T06:50:50.048Z,39.03
2022-07-29T06:51:23.901Z,38.89
2022-07-29T06:51:59.204Z,38.56
2022-07-29T06:52:31.402Z,39.01
2022-07-29T06:53:03.796Z,39.17
2022-07-29T06:53:39.179Z,38.70
2022-07-29T06:54:30.238Z,39.32
2022-07-29T06:55:05.031Z,39.00
2022-07-29T06:55:38.396Z,39.46
2022-07-29T06:56:10.820Z,39.04
2022-07-29T06:56:45.519Z,38.84
2022-07-29T06:57:17.745Z,38.49
2022-07-29T06:57:49.894Z,38.69
2022-07-29T06:58:26.811Z,38.10
2022-07-29T06:59:02.100Z,38.53
2022-07-29T06:59:36.799Z,38.24
2022-07-29T07:00:10.695Z,38.28
2022-07-29T07:00:43.164Z,38.58
2022-07-29T07:01:17.983Z,38.45
2022-07-29T07:01:50.235Z,38.66
2022-07-29T07:02:22.571Z,38.97
2022-07-29T07:02:57.434Z,38.50
2022-07-29T07:03:29.926Z,38.65
2022-07-29T07:04:05.024Z,38.42
2022-07-29T07:04:39.809Z,38.50
2022-07-29T07:05:12.018Z,38.66
2022-07-29T07:05:46.747Z,38.55
2022-07-29T07:06:18.946Z,38.34
2022-07-29T07:06:53.749Z,38.45
2022-07-29T07:07:26.064Z,38.83
2022-07-29T07:07:58.250Z,38.25
2022-07-29T07:08:33.058Z,38.59
2022-07-29T07:09:05.361Z,38.66
2022-07-29T07:09:39.990Z,38.86
2022-07-29T07:10:15.980Z,38.56
2022-07-29T07:10:48.148Z,38.77
2022-07-29T07:11:23.226Z,38.98
2022-07-29T07:11:55.397Z,38.67
2022-07-29T07:12:27.547Z,38.54
2022-07-29T07:13:02.829Z,38.52
2022-07-29T07:13:36.613Z,38.76
2022-07-29T07:14:11.721Z,38.83
2022-07-29T07:14:43.823Z,38.36
2022-07-29T07:15:15.992Z,38.53
2022-07-29T07:15:51.912Z,38.46
2022-07-29T07:16:24.113Z,38.48
2022-07-29T07:16:58.915Z,38.54
2022-07-29T07:17:31.088Z,38.16
2022-07-29T07:18:03.339Z,38.33
2022-07-29T07:18:38.175Z,38.29
2022-07-29T07:19:10.548Z,38.61
2022-07-29T07:19:46.216Z,38.26
2022-07-29T07:20:21.753Z,38.33
2022-07-29T07:20:58.102Z,38.42
2022-07-29T07:21:33.034Z,38.63
2022-07-29T07:22:05.206Z,38.69
2022-07-29T07:22:39.058Z,38.69
2022-07-29T07:23:14.229Z,38.54
2022-07-29T07:23:47.198Z,38.35
2022-07-29T07:24:22.147Z,38.28
2022-07-29T07:24:54.291Z,38.13
2022-07-29T07:25:26.708Z,38.01
2022-07-29T07:26:01.560Z,38.42
2022-07-29T07:26:33.742Z,38.02
2022-07-29T07:27:05.898Z,38.10
2022-07-29T07:28:12.862Z,38.41
2022-07-29T07:28:47.586Z,37.95
2022-07-29T07:29:19.859Z,37.98
2022-07-29T07:29:52.005Z,38.15
2022-07-29T07:30:26.830Z,38.28
2022-07-29T07:30:59.025Z,38.01
2022-07-29T07:31:33.935Z,38.12
2022-07-29T07:32:06.721Z,38.34
2022-07-29T07:32:38.927Z,38.32
2022-07-29T07:33:13.888Z,38.66
2022-07-29T07:33:46.191Z,38.99
2022-07-29T07:34:18.862Z,38.91
2022-07-29T07:35:31.896Z,39.00
2022-07-29T07:36:04.610Z,38.91
2022-07-29T07:36:36.760Z,39.00
2022-07-29T07:37:11.554Z,38.99
2022-07-29T07:37:43.836Z,38.75
2022-07-29T07:38:16.009Z,38.44